sensor_id;sensor_type;location;lat;lon;timestamp;P1;durP1;ratioP1;P2;durP2;ratioP2
75716;SDS011;64333;50.138;14.332;2024-02-23T00:00:50;5.90;;;2.70;;
75716;SDS011;64333;50.138;14.332;2024-02-23T00:03:15;6.13;;;2.60;;
75716;SDS011;64333;50.138;14.332;2024-02-23T00:05:41;4.78;;;2.15;;
75716;SDS011;64333;50.138;14.332;2024-02-23T00:08:06;3.58;;;1.80;;
75716;SDS011;64333;50.138;14.332;2024-02-23T00:10:32;7.40;;;3.63;;
75716;SDS011;64333;50.138;14.332;2024-02-23T00:12:57;3.90;;;2.03;;
75716;SDS011;64333;50.138;14.332;2024-02-23T00:15:22;5.22;;;2.83;;
75716;SDS011;64333;50.138;14.332;2024-02-23T00:17:50;4.20;;;2.55;;
75716;SDS011;64333;50.138;14.332;2024-02-23T00:20:15;8.48;;;3.60;;
75716;SDS011;64333;50.138;14.332;2024-02-23T00:22:41;5.53;;;1.90;;
75716;SDS011;64333;50.138;14.332;2024-02-23T00:25:06;6.07;;;2.28;;
75716;SDS011;64333;50.138;14.332;2024-02-23T00:27:31;4.57;;;2.00;;
75716;SDS011;64333;50.138;14.332;2024-02-23T00:29:57;5.15;;;2.50;;
75716;SDS011;64333;50.138;14.332;2024-02-23T00:32:22;5.82;;;2.08;;
75716;SDS011;64333;50.138;14.332;2024-02-23T00:34:47;4.80;;;2.15;;
75716;SDS011;64333;50.138;14.332;2024-02-23T00:37:13;2.90;;;1.85;;
75716;SDS011;64333;50.138;14.332;2024-02-23T00:39:38;1.95;;;1.27;;
75716;SDS011;64333;50.138;14.332;2024-02-23T00:42:04;3.50;;;1.98;;
75716;SDS011;64333;50.138;14.332;2024-02-23T00:44:29;3.28;;;2.03;;
75716;SDS011;64333;50.138;14.332;2024-02-23T00:46:54;2.78;;;1.60;;
75716;SDS011;64333;50.138;14.332;2024-02-23T00:49:20;3.70;;;1.73;;
75716;SDS011;64333;50.138;14.332;2024-02-23T00:51:45;2.60;;;1.20;;
75716;SDS011;64333;50.138;14.332;2024-02-23T00:54:10;1.40;;;0.80;;
75716;SDS011;64333;50.138;14.332;2024-02-23T00:56:36;1.42;;;1.02;;
75716;SDS011;64333;50.138;14.332;2024-02-23T00:59:01;1.05;;;0.80;;
75716;SDS011;64333;50.138;14.332;2024-02-23T01:01:27;1.23;;;0.85;;
75716;SDS011;64333;50.138;14.332;2024-02-23T01:03:53;0.68;;;0.57;;
75716;SDS011;64333;50.138;14.332;2024-02-23T01:06:19;1.00;;;0.73;;
75716;SDS011;64333;50.138;14.332;2024-02-23T01:08:44;1.15;;;0.82;;
75716;SDS011;64333;50.138;14.332;2024-02-23T01:11:10;0.95;;;0.73;;
75716;SDS011;64333;50.138;14.332;2024-02-23T01:13:35;1.50;;;0.68;;
75716;SDS011;64333;50.138;14.332;2024-02-23T01:16:00;1.02;;;0.70;;
75716;SDS011;64333;50.138;14.332;2024-02-23T01:18:26;1.52;;;0.77;;
75716;SDS011;64333;50.138;14.332;2024-02-23T01:20:51;1.77;;;0.73;;
75716;SDS011;64333;50.138;14.332;2024-02-23T01:23:16;1.15;;;0.80;;
75716;SDS011;64333;50.138;14.332;2024-02-23T01:25:42;1.13;;;0.70;;
75716;SDS011;64333;50.138;14.332;2024-02-23T01:28:07;1.23;;;0.60;;
75716;SDS011;64333;50.138;14.332;2024-02-23T01:30:32;1.20;;;0.85;;
75716;SDS011;64333;50.138;14.332;2024-02-23T01:32:58;0.90;;;0.50;;
75716;SDS011;64333;50.138;14.332;2024-02-23T01:35:23;0.50;;;0.30;;
75716;SDS011;64333;50.138;14.332;2024-02-23T01:37:48;0.57;;;0.45;;
75716;SDS011;64333;50.138;14.332;2024-02-23T01:40:13;1.50;;;0.52;;
75716;SDS011;64333;50.138;14.332;2024-02-23T01:42:39;1.33;;;0.55;;
75716;SDS011;64333;50.138;14.332;2024-02-23T01:45:04;1.13;;;0.40;;
75716;SDS011;64333;50.138;14.332;2024-02-23T01:47:30;1.60;;;0.50;;
75716;SDS011;64333;50.138;14.332;2024-02-23T01:49:57;0.93;;;0.30;;
75716;SDS011;64333;50.138;14.332;2024-02-23T01:52:24;0.85;;;0.43;;
75716;SDS011;64333;50.138;14.332;2024-02-23T01:54:49;0.82;;;0.32;;
75716;SDS011;64333;50.138;14.332;2024-02-23T01:57:15;0.70;;;0.25;;
75716;SDS011;64333;50.138;14.332;2024-02-23T01:59:41;0.35;;;0.30;;
75716;SDS011;64333;50.138;14.332;2024-02-23T02:02:07;0.80;;;0.40;;
75716;SDS011;64333;50.138;14.332;2024-02-23T02:04:32;0.50;;;0.30;;
75716;SDS011;64333;50.138;14.332;2024-02-23T02:06:58;0.80;;;0.30;;
75716;SDS011;64333;50.138;14.332;2024-02-23T02:09:24;0.22;;;0.20;;
75716;SDS011;64333;50.138;14.332;2024-02-23T02:11:50;0.60;;;0.20;;
75716;SDS011;64333;50.138;14.332;2024-02-23T02:14:16;1.67;;;0.40;;
75716;SDS011;64333;50.138;14.332;2024-02-23T02:16:42;0.60;;;0.22;;
75716;SDS011;64333;50.138;14.332;2024-02-23T02:19:09;1.00;;;0.43;;
75716;SDS011;64333;50.138;14.332;2024-02-23T02:21:34;0.75;;;0.47;;
75716;SDS011;64333;50.138;14.332;2024-02-23T02:24:00;0.77;;;0.35;;
75716;SDS011;64333;50.138;14.332;2024-02-23T02:26:25;0.20;;;0.10;;
75716;SDS011;64333;50.138;14.332;2024-02-23T02:28:51;0.38;;;0.20;;
75716;SDS011;64333;50.138;14.332;2024-02-23T02:31:17;0.20;;;0.20;;
75716;SDS011;64333;50.138;14.332;2024-02-23T02:33:43;0.50;;;0.20;;
75716;SDS011;64333;50.138;14.332;2024-02-23T02:36:09;0.28;;;0.20;;
75716;SDS011;64333;50.138;14.332;2024-02-23T02:38:34;0.47;;;0.32;;
75716;SDS011;64333;50.138;14.332;2024-02-23T02:40:59;0.40;;;0.20;;
75716;SDS011;64333;50.138;14.332;2024-02-23T02:43:28;0.40;;;0.20;;
75716;SDS011;64333;50.138;14.332;2024-02-23T02:45:53;0.60;;;0.20;;
75716;SDS011;64333;50.138;14.332;2024-02-23T02:48:18;0.80;;;0.28;;
75716;SDS011;64333;50.138;14.332;2024-02-23T02:50:44;0.50;;;0.30;;
75716;SDS011;64333;50.138;14.332;2024-02-23T02:53:10;1.23;;;0.50;;
75716;SDS011;64333;50.138;14.332;2024-02-23T02:55:36;0.73;;;0.40;;
75716;SDS011;64333;50.138;14.332;2024-02-23T02:58:02;0.20;;;0.20;;
75716;SDS011;64333;50.138;14.332;2024-02-23T03:00:27;0.98;;;0.20;;
75716;SDS011;64333;50.138;14.332;2024-02-23T03:02:53;0.40;;;0.40;;
75716;SDS011;64333;50.138;14.332;2024-02-23T03:05:18;0.68;;;0.38;;
75716;SDS011;64333;50.138;14.332;2024-02-23T03:07:44;0.60;;;0.20;;
75716;SDS011;64333;50.138;14.332;2024-02-23T03:10:09;0.40;;;0.25;;
75716;SDS011;64333;50.138;14.332;2024-02-23T03:12:34;0.50;;;0.40;;
75716;SDS011;64333;50.138;14.332;2024-02-23T03:15:00;0.43;;;0.30;;
75716;SDS011;64333;50.138;14.332;2024-02-23T03:17:27;0.65;;;0.43;;
75716;SDS011;64333;50.138;14.332;2024-02-23T03:19:53;0.32;;;0.32;;
75716;SDS011;64333;50.138;14.332;2024-02-23T03:22:18;2.35;;;0.40;;
75716;SDS011;64333;50.138;14.332;2024-02-23T03:24:43;0.93;;;0.30;;
75716;SDS011;64333;50.138;14.332;2024-02-23T03:27:08;0.60;;;0.45;;
75716;SDS011;64333;50.138;14.332;2024-02-23T03:29:34;0.30;;;0.30;;
75716;SDS011;64333;50.138;14.332;2024-02-23T03:32:00;0.52;;;0.22;;
75716;SDS011;64333;50.138;14.332;2024-02-23T03:34:26;0.30;;;0.22;;
75716;SDS011;64333;50.138;14.332;2024-02-23T03:36:51;0.40;;;0.20;;
75716;SDS011;64333;50.138;14.332;2024-02-23T03:39:17;0.52;;;0.22;;
75716;SDS011;64333;50.138;14.332;2024-02-23T03:41:42;1.35;;;0.30;;
75716;SDS011;64333;50.138;14.332;2024-02-23T03:44:07;0.47;;;0.30;;
75716;SDS011;64333;50.138;14.332;2024-02-23T03:46:33;0.22;;;0.00;;
75716;SDS011;64333;50.138;14.332;2024-02-23T03:48:59;0.20;;;0.13;;
75716;SDS011;64333;50.138;14.332;2024-02-23T03:51:24;1.30;;;0.30;;
75716;SDS011;64333;50.138;14.332;2024-02-23T03:53:50;0.50;;;0.22;;
75716;SDS011;64333;50.138;14.332;2024-02-23T03:56:15;0.20;;;0.20;;
75716;SDS011;64333;50.138;14.332;2024-02-23T03:58:41;0.40;;;0.20;;
75716;SDS011;64333;50.138;14.332;2024-02-23T04:01:06;0.40;;;0.20;;
75716;SDS011;64333;50.138;14.332;2024-02-23T04:03:32;0.30;;;0.20;;
75716;SDS011;64333;50.138;14.332;2024-02-23T04:05:57;0.60;;;0.32;;
75716;SDS011;64333;50.138;14.332;2024-02-23T04:08:22;0.32;;;0.20;;
75716;SDS011;64333;50.138;14.332;2024-02-23T04:10:48;0.45;;;0.17;;
75716;SDS011;64333;50.138;14.332;2024-02-23T04:13:13;0.98;;;0.25;;
75716;SDS011;64333;50.138;14.332;2024-02-23T04:15:39;0.82;;;0.20;;
75716;SDS011;64333;50.138;14.332;2024-02-23T04:18:05;0.57;;;0.20;;
75716;SDS011;64333;50.138;14.332;2024-02-23T04:20:30;1.63;;;0.22;;
75716;SDS011;64333;50.138;14.332;2024-02-23T04:22:57;0.60;;;0.20;;
75716;SDS011;64333;50.138;14.332;2024-02-23T04:25:22;0.30;;;0.20;;
75716;SDS011;64333;50.138;14.332;2024-02-23T04:27:47;0.20;;;0.10;;
75716;SDS011;64333;50.138;14.332;2024-02-23T04:30:13;0.28;;;0.20;;
75716;SDS011;64333;50.138;14.332;2024-02-23T04:32:38;0.10;;;0.10;;
75716;SDS011;64333;50.138;14.332;2024-02-23T04:35:04;0.65;;;0.20;;
75716;SDS011;64333;50.138;14.332;2024-02-23T04:37:30;0.28;;;0.10;;
75716;SDS011;64333;50.138;14.332;2024-02-23T04:39:55;0.20;;;0.00;;
75716;SDS011;64333;50.138;14.332;2024-02-23T04:42:21;1.08;;;0.32;;
75716;SDS011;64333;50.138;14.332;2024-02-23T04:44:46;0.10;;;0.10;;
75716;SDS011;64333;50.138;14.332;2024-02-23T04:47:11;0.45;;;0.20;;
75716;SDS011;64333;50.138;14.332;2024-02-23T04:49:37;1.00;;;0.20;;
75716;SDS011;64333;50.138;14.332;2024-02-23T04:52:02;0.15;;;0.10;;
75716;SDS011;64333;50.138;14.332;2024-02-23T04:54:28;0.32;;;0.32;;
75716;SDS011;64333;50.138;14.332;2024-02-23T04:56:54;0.30;;;0.10;;
75716;SDS011;64333;50.138;14.332;2024-02-23T04:59:19;0.10;;;0.10;;
75716;SDS011;64333;50.138;14.332;2024-02-23T05:01:44;0.17;;;0.10;;
75716;SDS011;64333;50.138;14.332;2024-02-23T05:04:10;0.38;;;0.17;;
75716;SDS011;64333;50.138;14.332;2024-02-23T05:06:35;0.47;;;0.20;;
75716;SDS011;64333;50.138;14.332;2024-02-23T05:09:01;0.40;;;0.20;;
75716;SDS011;64333;50.138;14.332;2024-02-23T05:11:40;0.30;;;0.25;;
75716;SDS011;64333;50.138;14.332;2024-02-23T05:14:05;0.82;;;0.50;;
75716;SDS011;64333;50.138;14.332;2024-02-23T05:16:31;0.20;;;0.10;;
75716;SDS011;64333;50.138;14.332;2024-02-23T05:18:56;0.32;;;0.30;;
75716;SDS011;64333;50.138;14.332;2024-02-23T05:21:21;0.75;;;0.15;;
75716;SDS011;64333;50.138;14.332;2024-02-23T05:23:47;0.22;;;0.22;;
75716;SDS011;64333;50.138;14.332;2024-02-23T05:26:12;0.30;;;0.30;;
75716;SDS011;64333;50.138;14.332;2024-02-23T05:28:37;1.15;;;0.30;;
75716;SDS011;64333;50.138;14.332;2024-02-23T05:31:03;0.52;;;0.30;;
75716;SDS011;64333;50.138;14.332;2024-02-23T05:33:29;0.77;;;0.40;;
75716;SDS011;64333;50.138;14.332;2024-02-23T05:35:55;0.32;;;0.28;;
75716;SDS011;64333;50.138;14.332;2024-02-23T05:38:20;0.30;;;0.20;;
75716;SDS011;64333;50.138;14.332;2024-02-23T05:40:45;0.80;;;0.40;;
75716;SDS011;64333;50.138;14.332;2024-02-23T05:43:11;1.25;;;0.30;;
75716;SDS011;64333;50.138;14.332;2024-02-23T05:45:36;0.50;;;0.45;;
75716;SDS011;64333;50.138;14.332;2024-02-23T05:48:02;0.43;;;0.20;;
75716;SDS011;64333;50.138;14.332;2024-02-23T05:50:27;0.60;;;0.30;;
75716;SDS011;64333;50.138;14.332;2024-02-23T05:52:53;0.32;;;0.20;;
75716;SDS011;64333;50.138;14.332;2024-02-23T05:55:18;0.43;;;0.30;;
75716;SDS011;64333;50.138;14.332;2024-02-23T05:57:44;1.75;;;0.45;;
75716;SDS011;64333;50.138;14.332;2024-02-23T06:00:10;0.82;;;0.20;;
75716;SDS011;64333;50.138;14.332;2024-02-23T06:02:36;0.25;;;0.22;;
75716;SDS011;64333;50.138;14.332;2024-02-23T06:05:02;1.15;;;0.52;;
75716;SDS011;64333;50.138;14.332;2024-02-23T06:07:29;1.00;;;0.50;;
75716;SDS011;64333;50.138;14.332;2024-02-23T06:09:55;0.20;;;0.15;;
75716;SDS011;64333;50.138;14.332;2024-02-23T06:12:21;1.85;;;0.43;;
75716;SDS011;64333;50.138;14.332;2024-02-23T06:14:47;0.40;;;0.40;;
75716;SDS011;64333;50.138;14.332;2024-02-23T06:17:12;1.15;;;0.57;;
75716;SDS011;64333;50.138;14.332;2024-02-23T06:19:37;0.30;;;0.30;;
75716;SDS011;64333;50.138;14.332;2024-02-23T06:22:03;0.88;;;0.30;;
75716;SDS011;64333;50.138;14.332;2024-02-23T06:24:28;0.60;;;0.40;;
75716;SDS011;64333;50.138;14.332;2024-02-23T06:26:54;2.55;;;1.30;;
75716;SDS011;64333;50.138;14.332;2024-02-23T06:29:19;0.45;;;0.38;;
75716;SDS011;64333;50.138;14.332;2024-02-23T06:31:44;0.30;;;0.30;;
75716;SDS011;64333;50.138;14.332;2024-02-23T06:34:14;1.15;;;0.63;;
75716;SDS011;64333;50.138;14.332;2024-02-23T06:36:39;3.03;;;1.48;;
75716;SDS011;64333;50.138;14.332;2024-02-23T06:39:05;2.83;;;1.23;;
75716;SDS011;64333;50.138;14.332;2024-02-23T06:41:30;0.85;;;0.63;;
75716;SDS011;64333;50.138;14.332;2024-02-23T06:43:56;0.70;;;0.60;;
75716;SDS011;64333;50.138;14.332;2024-02-23T06:46:21;1.73;;;0.52;;
75716;SDS011;64333;50.138;14.332;2024-02-23T06:48:47;0.77;;;0.45;;
75716;SDS011;64333;50.138;14.332;2024-02-23T06:51:13;2.03;;;0.50;;
75716;SDS011;64333;50.138;14.332;2024-02-23T06:53:40;1.10;;;0.50;;
75716;SDS011;64333;50.138;14.332;2024-02-23T06:56:06;1.33;;;0.22;;
75716;SDS011;64333;50.138;14.332;2024-02-23T06:58:31;0.57;;;0.43;;
75716;SDS011;64333;50.138;14.332;2024-02-23T07:00:57;1.00;;;0.40;;
75716;SDS011;64333;50.138;14.332;2024-02-23T07:03:22;0.40;;;0.40;;
75716;SDS011;64333;50.138;14.332;2024-02-23T07:05:48;1.00;;;0.65;;
75716;SDS011;64333;50.138;14.332;2024-02-23T07:08:14;1.00;;;0.50;;
75716;SDS011;64333;50.138;14.332;2024-02-23T07:10:40;1.45;;;0.43;;
75716;SDS011;64333;50.138;14.332;2024-02-23T07:13:05;1.23;;;0.47;;
75716;SDS011;64333;50.138;14.332;2024-02-23T07:15:32;1.58;;;0.50;;
75716;SDS011;64333;50.138;14.332;2024-02-23T07:17:58;0.90;;;0.57;;
75716;SDS011;64333;50.138;14.332;2024-02-23T07:20:23;1.38;;;0.60;;
75716;SDS011;64333;50.138;14.332;2024-02-23T07:22:49;0.68;;;0.40;;
75716;SDS011;64333;50.138;14.332;2024-02-23T07:25:17;1.45;;;0.50;;
75716;SDS011;64333;50.138;14.332;2024-02-23T07:27:45;0.50;;;0.40;;
75716;SDS011;64333;50.138;14.332;2024-02-23T07:30:11;1.88;;;0.60;;
75716;SDS011;64333;50.138;14.332;2024-02-23T07:32:37;1.50;;;0.68;;
75716;SDS011;64333;50.138;14.332;2024-02-23T07:35:03;0.63;;;0.40;;
75716;SDS011;64333;50.138;14.332;2024-02-23T07:37:29;0.77;;;0.70;;
75716;SDS011;64333;50.138;14.332;2024-02-23T07:39:54;0.93;;;0.60;;
75716;SDS011;64333;50.138;14.332;2024-02-23T07:42:20;0.95;;;0.70;;
75716;SDS011;64333;50.138;14.332;2024-02-23T07:44:45;1.95;;;0.50;;
75716;SDS011;64333;50.138;14.332;2024-02-23T07:47:11;0.73;;;0.50;;
75716;SDS011;64333;50.138;14.332;2024-02-23T07:49:37;2.20;;;0.47;;
75716;SDS011;64333;50.138;14.332;2024-02-23T07:52:02;1.52;;;0.65;;
75716;SDS011;64333;50.138;14.332;2024-02-23T07:54:28;1.48;;;0.68;;
75716;SDS011;64333;50.138;14.332;2024-02-23T07:56:54;1.58;;;0.50;;
75716;SDS011;64333;50.138;14.332;2024-02-23T07:59:19;1.27;;;0.80;;
75716;SDS011;64333;50.138;14.332;2024-02-23T08:01:45;1.35;;;1.05;;
75716;SDS011;64333;50.138;14.332;2024-02-23T08:04:11;1.10;;;0.80;;
75716;SDS011;64333;50.138;14.332;2024-02-23T08:06:38;1.23;;;0.70;;
75716;SDS011;64333;50.138;14.332;2024-02-23T08:09:04;1.45;;;0.47;;
75716;SDS011;64333;50.138;14.332;2024-02-23T08:11:30;1.00;;;0.73;;
75716;SDS011;64333;50.138;14.332;2024-02-23T08:13:55;0.52;;;0.43;;
75716;SDS011;64333;50.138;14.332;2024-02-23T08:16:21;2.72;;;0.70;;
75716;SDS011;64333;50.138;14.332;2024-02-23T08:18:46;1.10;;;0.60;;
75716;SDS011;64333;50.138;14.332;2024-02-23T08:21:12;1.08;;;0.40;;
75716;SDS011;64333;50.138;14.332;2024-02-23T08:23:37;1.33;;;0.63;;
75716;SDS011;64333;50.138;14.332;2024-02-23T08:26:03;1.80;;;0.50;;
75716;SDS011;64333;50.138;14.332;2024-02-23T08:28:28;1.17;;;1.00;;
75716;SDS011;64333;50.138;14.332;2024-02-23T08:30:54;1.35;;;0.43;;
75716;SDS011;64333;50.138;14.332;2024-02-23T08:33:19;0.50;;;0.40;;
75716;SDS011;64333;50.138;14.332;2024-02-23T08:35:45;1.13;;;0.80;;
75716;SDS011;64333;50.138;14.332;2024-02-23T08:38:10;1.45;;;0.60;;
75716;SDS011;64333;50.138;14.332;2024-02-23T08:40:36;0.90;;;0.63;;
75716;SDS011;64333;50.138;14.332;2024-02-23T08:43:01;0.65;;;0.60;;
75716;SDS011;64333;50.138;14.332;2024-02-23T08:45:27;1.80;;;0.40;;
75716;SDS011;64333;50.138;14.332;2024-02-23T08:47:53;2.03;;;0.70;;
75716;SDS011;64333;50.138;14.332;2024-02-23T08:50:18;2.42;;;0.73;;
75716;SDS011;64333;50.138;14.332;2024-02-23T08:52:44;1.77;;;0.50;;
75716;SDS011;64333;50.138;14.332;2024-02-23T08:55:09;2.05;;;0.95;;
75716;SDS011;64333;50.138;14.332;2024-02-23T08:57:36;1.90;;;1.08;;
75716;SDS011;64333;50.138;14.332;2024-02-23T09:00:03;1.10;;;0.60;;
75716;SDS011;64333;50.138;14.332;2024-02-23T09:02:30;1.17;;;0.68;;
75716;SDS011;64333;50.138;14.332;2024-02-23T09:04:57;1.13;;;0.45;;
75716;SDS011;64333;50.138;14.332;2024-02-23T09:07:23;0.70;;;0.47;;
75716;SDS011;64333;50.138;14.332;2024-02-23T09:09:48;0.73;;;0.73;;
75716;SDS011;64333;50.138;14.332;2024-02-23T09:12:15;1.23;;;1.00;;
75716;SDS011;64333;50.138;14.332;2024-02-23T09:14:41;1.58;;;0.60;;
75716;SDS011;64333;50.138;14.332;2024-02-23T09:17:08;2.95;;;1.10;;
75716;SDS011;64333;50.138;14.332;2024-02-23T09:19:35;1.45;;;0.88;;
75716;SDS011;64333;50.138;14.332;2024-02-23T09:22:01;1.17;;;0.80;;
75716;SDS011;64333;50.138;14.332;2024-02-23T09:24:27;2.22;;;1.10;;
75716;SDS011;64333;50.138;14.332;2024-02-23T09:26:52;1.33;;;0.65;;
75716;SDS011;64333;50.138;14.332;2024-02-23T09:29:18;1.40;;;1.00;;
75716;SDS011;64333;50.138;14.332;2024-02-23T09:31:43;1.23;;;0.80;;
75716;SDS011;64333;50.138;14.332;2024-02-23T09:34:08;1.17;;;0.73;;
75716;SDS011;64333;50.138;14.332;2024-02-23T09:36:34;1.23;;;0.90;;
75716;SDS011;64333;50.138;14.332;2024-02-23T09:38:59;1.88;;;0.55;;
75716;SDS011;64333;50.138;14.332;2024-02-23T09:41:26;5.82;;;0.77;;
75716;SDS011;64333;50.138;14.332;2024-02-23T09:43:52;3.72;;;0.75;;
75716;SDS011;64333;50.138;14.332;2024-02-23T09:46:23;1.52;;;0.80;;
75716;SDS011;64333;50.138;14.332;2024-02-23T09:48:49;3.10;;;1.38;;
75716;SDS011;64333;50.138;14.332;2024-02-23T09:51:15;1.88;;;0.95;;
75716;SDS011;64333;50.138;14.332;2024-02-23T09:53:41;2.17;;;1.00;;
75716;SDS011;64333;50.138;14.332;2024-02-23T09:56:08;1.10;;;0.80;;
75716;SDS011;64333;50.138;14.332;2024-02-23T09:58:34;2.25;;;0.57;;
75716;SDS011;64333;50.138;14.332;2024-02-23T10:01:02;2.53;;;0.50;;
75716;SDS011;64333;50.138;14.332;2024-02-23T10:03:28;2.40;;;0.63;;
75716;SDS011;64333;50.138;14.332;2024-02-23T10:05:55;2.05;;;0.63;;
75716;SDS011;64333;50.138;14.332;2024-02-23T10:08:21;2.70;;;0.70;;
75716;SDS011;64333;50.138;14.332;2024-02-23T10:10:47;3.83;;;1.05;;
75716;SDS011;64333;50.138;14.332;2024-02-23T10:13:17;2.28;;;0.80;;
75716;SDS011;64333;50.138;14.332;2024-02-23T10:15:43;2.75;;;0.60;;
75716;SDS011;64333;50.138;14.332;2024-02-23T10:18:08;1.35;;;0.73;;
75716;SDS011;64333;50.138;14.332;2024-02-23T10:20:33;1.05;;;0.60;;
75716;SDS011;64333;50.138;14.332;2024-02-23T10:22:59;1.58;;;0.73;;
75716;SDS011;64333;50.138;14.332;2024-02-23T10:25:25;2.15;;;0.88;;
75716;SDS011;64333;50.138;14.332;2024-02-23T10:27:50;1.77;;;0.90;;
75716;SDS011;64333;50.138;14.332;2024-02-23T10:30:16;0.98;;;0.60;;
75716;SDS011;64333;50.138;14.332;2024-02-23T10:32:41;2.03;;;0.85;;
75716;SDS011;64333;50.138;14.332;2024-02-23T10:35:09;1.67;;;0.75;;
75716;SDS011;64333;50.138;14.332;2024-02-23T10:37:42;1.17;;;0.50;;
75716;SDS011;64333;50.138;14.332;2024-02-23T10:40:09;1.55;;;1.00;;
75716;SDS011;64333;50.138;14.332;2024-02-23T10:42:37;2.45;;;0.95;;
75716;SDS011;64333;50.138;14.332;2024-02-23T10:45:03;2.38;;;0.65;;
75716;SDS011;64333;50.138;14.332;2024-02-23T10:47:31;1.48;;;0.70;;
75716;SDS011;64333;50.138;14.332;2024-02-23T10:50:01;3.85;;;1.70;;
75716;SDS011;64333;50.138;14.332;2024-02-23T10:52:27;1.08;;;0.70;;
75716;SDS011;64333;50.138;14.332;2024-02-23T10:54:53;1.60;;;0.65;;
75716;SDS011;64333;50.138;14.332;2024-02-23T10:57:20;1.30;;;0.73;;
75716;SDS011;64333;50.138;14.332;2024-02-23T10:59:46;3.92;;;1.17;;
75716;SDS011;64333;50.138;14.332;2024-02-23T11:02:13;1.42;;;0.95;;
75716;SDS011;64333;50.138;14.332;2024-02-23T11:04:42;2.13;;;1.00;;
75716;SDS011;64333;50.138;14.332;2024-02-23T11:07:15;1.20;;;0.90;;
75716;SDS011;64333;50.138;14.332;2024-02-23T11:09:40;2.05;;;0.77;;
75716;SDS011;64333;50.138;14.332;2024-02-23T11:12:06;3.07;;;1.00;;
75716;SDS011;64333;50.138;14.332;2024-02-23T11:14:35;1.45;;;1.13;;
75716;SDS011;64333;50.138;14.332;2024-02-23T11:17:01;2.10;;;1.05;;
75716;SDS011;64333;50.138;14.332;2024-02-23T11:22:02;2.80;;;0.80;;
75716;SDS011;64333;50.138;14.332;2024-02-23T11:24:29;1.52;;;0.90;;
75716;SDS011;64333;50.138;14.332;2024-02-23T11:26:56;1.77;;;0.80;;
75716;SDS011;64333;50.138;14.332;2024-02-23T11:29:46;1.70;;;0.63;;
75716;SDS011;64333;50.138;14.332;2024-02-23T11:32:16;1.35;;;0.77;;
75716;SDS011;64333;50.138;14.332;2024-02-23T11:34:53;1.05;;;0.73;;
75716;SDS011;64333;50.138;14.332;2024-02-23T11:37:24;1.92;;;0.80;;
75716;SDS011;64333;50.138;14.332;2024-02-23T11:40:13;1.70;;;1.00;;
75716;SDS011;64333;50.138;14.332;2024-02-23T11:42:41;1.63;;;0.50;;
75716;SDS011;64333;50.138;14.332;2024-02-23T11:45:07;1.15;;;0.90;;
75716;SDS011;64333;50.138;14.332;2024-02-23T11:47:33;1.65;;;0.80;;
75716;SDS011;64333;50.138;14.332;2024-02-23T11:49:58;2.28;;;1.23;;
75716;SDS011;64333;50.138;14.332;2024-02-23T11:52:24;2.38;;;0.85;;
75716;SDS011;64333;50.138;14.332;2024-02-23T11:54:50;2.45;;;0.90;;
75716;SDS011;64333;50.138;14.332;2024-02-23T11:57:16;2.30;;;0.82;;
75716;SDS011;64333;50.138;14.332;2024-02-23T11:59:44;2.05;;;0.65;;
75716;SDS011;64333;50.138;14.332;2024-02-23T12:02:36;2.60;;;1.05;;
75716;SDS011;64333;50.138;14.332;2024-02-23T12:05:01;1.73;;;0.88;;
75716;SDS011;64333;50.138;14.332;2024-02-23T12:07:30;2.22;;;0.85;;
75716;SDS011;64333;50.138;14.332;2024-02-23T12:09:57;1.60;;;0.80;;
75716;SDS011;64333;50.138;14.332;2024-02-23T12:12:26;3.25;;;1.10;;
75716;SDS011;64333;50.138;14.332;2024-02-23T12:14:52;2.05;;;0.95;;
75716;SDS011;64333;50.138;14.332;2024-02-23T12:17:18;2.40;;;1.38;;
75716;SDS011;64333;50.138;14.332;2024-02-23T12:19:43;2.95;;;1.20;;
75716;SDS011;64333;50.138;14.332;2024-02-23T12:22:12;5.45;;;1.00;;
75716;SDS011;64333;50.138;14.332;2024-02-23T12:24:37;2.72;;;1.13;;
75716;SDS011;64333;50.138;14.332;2024-02-23T12:27:06;1.35;;;0.88;;
75716;SDS011;64333;50.138;14.332;2024-02-23T12:29:32;2.28;;;0.82;;
75716;SDS011;64333;50.138;14.332;2024-02-23T12:32:06;2.00;;;0.98;;
75716;SDS011;64333;50.138;14.332;2024-02-23T12:34:32;0.95;;;0.80;;
75716;SDS011;64333;50.138;14.332;2024-02-23T12:36:58;3.13;;;0.90;;
75716;SDS011;64333;50.138;14.332;2024-02-23T12:39:23;2.03;;;0.95;;
75716;SDS011;64333;50.138;14.332;2024-02-23T12:41:49;3.15;;;1.00;;
75716;SDS011;64333;50.138;14.332;2024-02-23T12:44:16;2.05;;;1.13;;
75716;SDS011;64333;50.138;14.332;2024-02-23T12:46:42;2.95;;;1.20;;
75716;SDS011;64333;50.138;14.332;2024-02-23T12:49:07;3.58;;;1.30;;
75716;SDS011;64333;50.138;14.332;2024-02-23T12:51:33;2.15;;;1.08;;
75716;SDS011;64333;50.138;14.332;2024-02-23T12:53:59;1.55;;;1.00;;
75716;SDS011;64333;50.138;14.332;2024-02-23T12:56:25;2.40;;;1.00;;
75716;SDS011;64333;50.138;14.332;2024-02-23T12:58:50;1.88;;;0.93;;
75716;SDS011;64333;50.138;14.332;2024-02-23T13:01:16;2.30;;;1.10;;
75716;SDS011;64333;50.138;14.332;2024-02-23T13:03:41;3.10;;;1.30;;
75716;SDS011;64333;50.138;14.332;2024-02-23T13:06:07;1.48;;;1.02;;
75716;SDS011;64333;50.138;14.332;2024-02-23T13:08:33;1.90;;;0.95;;
75716;SDS011;64333;50.138;14.332;2024-02-23T13:10:59;1.25;;;0.80;;
75716;SDS011;64333;50.138;14.332;2024-02-23T13:13:25;1.35;;;0.95;;
75716;SDS011;64333;50.138;14.332;2024-02-23T13:15:51;2.05;;;0.70;;
75716;SDS011;64333;50.138;14.332;2024-02-23T13:18:17;1.10;;;0.75;;
75716;SDS011;64333;50.138;14.332;2024-02-23T13:20:44;1.55;;;1.00;;
75716;SDS011;64333;50.138;14.332;2024-02-23T13:23:09;2.20;;;1.15;;
75716;SDS011;64333;50.138;14.332;2024-02-23T13:25:36;2.60;;;1.40;;
75716;SDS011;64333;50.138;14.332;2024-02-23T13:28:05;1.63;;;1.10;;
75716;SDS011;64333;50.138;14.332;2024-02-23T13:30:31;3.22;;;1.70;;
75716;SDS011;64333;50.138;14.332;2024-02-23T13:32:57;2.80;;;1.65;;
75716;SDS011;64333;50.138;14.332;2024-02-23T13:35:22;2.30;;;1.80;;
75716;SDS011;64333;50.138;14.332;2024-02-23T13:37:48;2.60;;;1.50;;
75716;SDS011;64333;50.138;14.332;2024-02-23T13:40:13;1.83;;;0.93;;
75716;SDS011;64333;50.138;14.332;2024-02-23T13:42:39;2.15;;;1.10;;
75716;SDS011;64333;50.138;14.332;2024-02-23T13:45:08;2.55;;;1.15;;
75716;SDS011;64333;50.138;14.332;2024-02-23T13:47:34;2.42;;;0.90;;
75716;SDS011;64333;50.138;14.332;2024-02-23T13:50:00;1.85;;;1.00;;
75716;SDS011;64333;50.138;14.332;2024-02-23T13:52:26;1.67;;;0.90;;
75716;SDS011;64333;50.138;14.332;2024-02-23T13:54:52;1.95;;;1.00;;
75716;SDS011;64333;50.138;14.332;2024-02-23T13:57:18;2.13;;;1.00;;
75716;SDS011;64333;50.138;14.332;2024-02-23T13:59:43;1.48;;;1.17;;
75716;SDS011;64333;50.138;14.332;2024-02-23T14:02:23;2.35;;;1.67;;
75716;SDS011;64333;50.138;14.332;2024-02-23T14:05:00;2.42;;;1.40;;
75716;SDS011;64333;50.138;14.332;2024-02-23T14:07:28;2.50;;;1.02;;
75716;SDS011;64333;50.138;14.332;2024-02-23T14:09:53;1.48;;;0.80;;
75716;SDS011;64333;50.138;14.332;2024-02-23T14:12:19;1.98;;;1.00;;
75716;SDS011;64333;50.138;14.332;2024-02-23T14:14:44;3.20;;;1.15;;
75716;SDS011;64333;50.138;14.332;2024-02-23T14:17:09;2.35;;;1.05;;
75716;SDS011;64333;50.138;14.332;2024-02-23T14:19:35;2.67;;;0.80;;
75716;SDS011;64333;50.138;14.332;2024-02-23T14:22:00;2.17;;;1.05;;
75716;SDS011;64333;50.138;14.332;2024-02-23T14:24:25;3.75;;;0.88;;
75716;SDS011;64333;50.138;14.332;2024-02-23T14:26:51;1.48;;;0.90;;
75716;SDS011;64333;50.138;14.332;2024-02-23T14:29:16;2.65;;;1.10;;